sensor_id;sensor_type;location;lat;lon;timestamp;P1;durP1;ratioP1;P2;durP2;ratioP2
61590;SDS011;71994;52.410;-1.966;2023-08-06T00:00:35;2.13;;;1.50;;
61590;SDS011;71994;52.410;-1.966;2023-08-06T00:03:42;2.95;;;1.50;;
61590;SDS011;71994;52.410;-1.966;2023-08-06T00:06:49;2.88;;;1.58;;
61590;SDS011;71994;52.410;-1.966;2023-08-06T00:09:55;2.10;;;1.30;;
61590;SDS011;71994;52.410;-1.966;2023-08-06T00:13:05;2.97;;;1.50;;
61590;SDS011;71994;52.410;-1.966;2023-08-06T00:16:11;2.90;;;1.60;;
61590;SDS011;71994;52.410;-1.966;2023-08-06T00:19:19;3.25;;;1.80;;
61590;SDS011;71994;52.410;-1.966;2023-08-06T00:22:28;2.93;;;1.60;;
61590;SDS011;71994;52.410;-1.966;2023-08-06T00:25:38;2.63;;;1.63;;
61590;SDS011;71994;52.410;-1.966;2023-08-06T00:28:50;2.60;;;1.60;;
61590;SDS011;71994;52.410;-1.966;2023-08-06T00:31:57;2.92;;;1.80;;
61590;SDS011;71994;52.410;-1.966;2023-08-06T00:35:08;2.63;;;1.70;;
61590;SDS011;71994;52.410;-1.966;2023-08-06T00:38:16;2.75;;;1.65;;
61590;SDS011;71994;52.410;-1.966;2023-08-06T00:41:24;3.05;;;1.40;;
61590;SDS011;71994;52.410;-1.966;2023-08-06T00:44:34;2.80;;;1.60;;
61590;SDS011;71994;52.410;-1.966;2023-08-06T00:47:40;2.40;;;1.60;;
61590;SDS011;71994;52.410;-1.966;2023-08-06T00:50:54;3.67;;;1.80;;
61590;SDS011;71994;52.410;-1.966;2023-08-06T00:54:07;2.65;;;1.52;;
61590;SDS011;71994;52.410;-1.966;2023-08-06T00:57:18;2.63;;;1.70;;
61590;SDS011;71994;52.410;-1.966;2023-08-06T01:00:28;2.70;;;1.80;;
61590;SDS011;71994;52.410;-1.966;2023-08-06T01:03:35;3.92;;;1.95;;
61590;SDS011;71994;52.410;-1.966;2023-08-06T01:06:45;3.05;;;1.80;;
61590;SDS011;71994;52.410;-1.966;2023-08-06T01:09:56;3.00;;;1.77;;
61590;SDS011;71994;52.410;-1.966;2023-08-06T01:13:16;3.78;;;2.10;;
61590;SDS011;71994;52.410;-1.966;2023-08-06T01:16:32;3.65;;;1.92;;
61590;SDS011;71994;52.410;-1.966;2023-08-06T01:19:45;3.33;;;1.90;;
61590;SDS011;71994;52.410;-1.966;2023-08-06T01:22:54;3.38;;;1.77;;
61590;SDS011;71994;52.410;-1.966;2023-08-06T01:26:02;4.43;;;2.22;;
61590;SDS011;71994;52.410;-1.966;2023-08-06T01:29:17;3.72;;;1.88;;
61590;SDS011;71994;52.410;-1.966;2023-08-06T01:32:28;3.33;;;1.90;;
61590;SDS011;71994;52.410;-1.966;2023-08-06T01:35:37;3.88;;;1.80;;
61590;SDS011;71994;52.410;-1.966;2023-08-06T01:38:47;3.90;;;2.00;;
61590;SDS011;71994;52.410;-1.966;2023-08-06T01:41:53;3.50;;;1.90;;
61590;SDS011;71994;52.410;-1.966;2023-08-06T01:45:00;3.55;;;2.10;;
61590;SDS011;71994;52.410;-1.966;2023-08-06T01:48:06;3.13;;;1.80;;
61590;SDS011;71994;52.410;-1.966;2023-08-06T01:51:12;3.65;;;1.90;;
61590;SDS011;71994;52.410;-1.966;2023-08-06T01:54:21;3.08;;;1.77;;
61590;SDS011;71994;52.410;-1.966;2023-08-06T01:57:28;2.80;;;1.70;;
61590;SDS011;71994;52.410;-1.966;2023-08-06T02:00:35;3.33;;;1.75;;
61590;SDS011;71994;52.410;-1.966;2023-08-06T02:03:45;3.13;;;1.90;;
61590;SDS011;71994;52.410;-1.966;2023-08-06T02:06:53;3.85;;;1.85;;
61590;SDS011;71994;52.410;-1.966;2023-08-06T02:10:02;2.63;;;1.80;;
61590;SDS011;71994;52.410;-1.966;2023-08-06T02:13:08;3.42;;;1.80;;
61590;SDS011;71994;52.410;-1.966;2023-08-06T02:16:16;2.60;;;1.52;;
61590;SDS011;71994;52.410;-1.966;2023-08-06T02:19:33;2.80;;;1.63;;
61590;SDS011;71994;52.410;-1.966;2023-08-06T02:22:41;2.90;;;1.63;;
61590;SDS011;71994;52.410;-1.966;2023-08-06T02:25:53;3.30;;;1.80;;
61590;SDS011;71994;52.410;-1.966;2023-08-06T02:29:02;2.60;;;1.40;;
61590;SDS011;71994;52.410;-1.966;2023-08-06T02:32:09;2.80;;;1.70;;
61590;SDS011;71994;52.410;-1.966;2023-08-06T02:35:15;2.80;;;1.50;;
61590;SDS011;71994;52.410;-1.966;2023-08-06T02:38:22;3.50;;;1.83;;
61590;SDS011;71994;52.410;-1.966;2023-08-06T02:41:33;3.38;;;1.90;;
61590;SDS011;71994;52.410;-1.966;2023-08-06T02:44:39;4.80;;;2.03;;
61590;SDS011;71994;52.410;-1.966;2023-08-06T02:47:46;2.50;;;1.60;;
61590;SDS011;71994;52.410;-1.966;2023-08-06T02:50:52;2.50;;;1.60;;
61590;SDS011;71994;52.410;-1.966;2023-08-06T02:54:02;2.53;;;1.42;;
61590;SDS011;71994;52.410;-1.966;2023-08-06T02:57:14;2.63;;;1.60;;
61590;SDS011;71994;52.410;-1.966;2023-08-06T03:00:20;2.92;;;1.48;;
61590;SDS011;71994;52.410;-1.966;2023-08-06T03:03:27;2.33;;;1.40;;
61590;SDS011;71994;52.410;-1.966;2023-08-06T03:06:33;3.15;;;1.70;;
61590;SDS011;71994;52.410;-1.966;2023-08-06T03:09:41;2.53;;;1.40;;
61590;SDS011;71994;52.410;-1.966;2023-08-06T03:12:50;2.45;;;1.50;;
61590;SDS011;71994;52.410;-1.966;2023-08-06T03:15:56;3.10;;;1.60;;
61590;SDS011;71994;52.410;-1.966;2023-08-06T03:19:07;2.58;;;1.65;;
61590;SDS011;71994;52.410;-1.966;2023-08-06T03:22:13;2.40;;;1.52;;
61590;SDS011;71994;52.410;-1.966;2023-08-06T03:25:20;3.55;;;1.60;;
61590;SDS011;71994;52.410;-1.966;2023-08-06T03:28:29;3.88;;;1.63;;
61590;SDS011;71994;52.410;-1.966;2023-08-06T03:31:36;3.00;;;1.73;;
61590;SDS011;71994;52.410;-1.966;2023-08-06T03:34:42;2.30;;;1.38;;
61590;SDS011;71994;52.410;-1.966;2023-08-06T03:37:48;2.58;;;1.50;;
61590;SDS011;71994;52.410;-1.966;2023-08-06T03:40:55;2.58;;;1.55;;
61590;SDS011;71994;52.410;-1.966;2023-08-06T03:44:05;2.53;;;1.50;;
61590;SDS011;71994;52.410;-1.966;2023-08-06T03:47:12;1.85;;;1.15;;
61590;SDS011;71994;52.410;-1.966;2023-08-06T03:50:26;3.20;;;1.42;;
61590;SDS011;71994;52.410;-1.966;2023-08-06T03:53:34;2.55;;;1.48;;
61590;SDS011;71994;52.410;-1.966;2023-08-06T03:56:42;2.53;;;1.65;;
61590;SDS011;71994;52.410;-1.966;2023-08-06T03:59:57;3.03;;;1.55;;
61590;SDS011;71994;52.410;-1.966;2023-08-06T04:03:07;2.40;;;1.30;;
61590;SDS011;71994;52.410;-1.966;2023-08-06T04:06:13;2.17;;;1.23;;
61590;SDS011;71994;52.410;-1.966;2023-08-06T04:09:22;2.97;;;1.40;;
61590;SDS011;71994;52.410;-1.966;2023-08-06T04:12:29;2.23;;;1.40;;
61590;SDS011;71994;52.410;-1.966;2023-08-06T04:15:42;2.33;;;1.35;;
61590;SDS011;71994;52.410;-1.966;2023-08-06T04:18:48;2.70;;;1.23;;
61590;SDS011;71994;52.410;-1.966;2023-08-06T04:21:56;3.83;;;1.35;;
61590;SDS011;71994;52.410;-1.966;2023-08-06T04:25:05;1.95;;;1.27;;
61590;SDS011;71994;52.410;-1.966;2023-08-06T04:28:16;2.22;;;1.50;;
61590;SDS011;71994;52.410;-1.966;2023-08-06T04:31:26;1.75;;;1.30;;
61590;SDS011;71994;52.410;-1.966;2023-08-06T04:34:32;2.90;;;1.30;;
61590;SDS011;71994;52.410;-1.966;2023-08-06T04:37:38;1.63;;;1.23;;
61590;SDS011;71994;52.410;-1.966;2023-08-06T04:40:45;2.78;;;1.48;;
61590;SDS011;71994;52.410;-1.966;2023-08-06T04:43:54;2.20;;;1.30;;
61590;SDS011;71994;52.410;-1.966;2023-08-06T04:47:04;2.10;;;1.23;;
61590;SDS011;71994;52.410;-1.966;2023-08-06T04:50:13;2.17;;;1.30;;
61590;SDS011;71994;52.410;-1.966;2023-08-06T04:53:23;2.38;;;1.15;;
61590;SDS011;71994;52.410;-1.966;2023-08-06T04:56:29;2.42;;;1.20;;
61590;SDS011;71994;52.410;-1.966;2023-08-06T04:59:36;2.88;;;1.20;;
61590;SDS011;71994;52.410;-1.966;2023-08-06T05:02:45;2.22;;;1.38;;
61590;SDS011;71994;52.410;-1.966;2023-08-06T05:05:51;1.90;;;1.20;;
61590;SDS011;71994;52.410;-1.966;2023-08-06T05:08:58;2.00;;;1.10;;
61590;SDS011;71994;52.410;-1.966;2023-08-06T05:12:08;2.00;;;1.13;;
61590;SDS011;71994;52.410;-1.966;2023-08-06T05:15:16;2.03;;;1.20;;
61590;SDS011;71994;52.410;-1.966;2023-08-06T05:18:25;2.83;;;1.38;;
61590;SDS011;71994;52.410;-1.966;2023-08-06T05:21:35;3.13;;;1.30;;
61590;SDS011;71994;52.410;-1.966;2023-08-06T05:24:42;2.10;;;1.05;;
61590;SDS011;71994;52.410;-1.966;2023-08-06T05:27:48;1.90;;;1.23;;
61590;SDS011;71994;52.410;-1.966;2023-08-06T05:30:55;2.08;;;1.05;;
61590;SDS011;71994;52.410;-1.966;2023-08-06T05:34:12;4.00;;;1.20;;
61590;SDS011;71994;52.410;-1.966;2023-08-06T05:37:18;2.57;;;1.30;;
61590;SDS011;71994;52.410;-1.966;2023-08-06T05:40:24;1.77;;;1.10;;
61590;SDS011;71994;52.410;-1.966;2023-08-06T05:43:33;2.90;;;1.10;;
61590;SDS011;71994;52.410;-1.966;2023-08-06T05:46:39;2.50;;;1.20;;
61590;SDS011;71994;52.410;-1.966;2023-08-06T05:49:49;1.83;;;1.30;;
61590;SDS011;71994;52.410;-1.966;2023-08-06T05:53:00;2.05;;;1.05;;
61590;SDS011;71994;52.410;-1.966;2023-08-06T05:56:06;2.72;;;1.20;;
61590;SDS011;71994;52.410;-1.966;2023-08-06T05:59:12;1.83;;;1.00;;
61590;SDS011;71994;52.410;-1.966;2023-08-06T06:02:21;2.15;;;1.13;;
61590;SDS011;71994;52.410;-1.966;2023-08-06T06:05:30;1.88;;;0.93;;
61590;SDS011;71994;52.410;-1.966;2023-08-06T06:08:37;2.40;;;1.20;;
61590;SDS011;71994;52.410;-1.966;2023-08-06T06:11:45;2.03;;;1.10;;
61590;SDS011;71994;52.410;-1.966;2023-08-06T06:14:52;1.73;;;1.10;;
61590;SDS011;71994;52.410;-1.966;2023-08-06T06:18:00;2.72;;;0.98;;
61590;SDS011;71994;52.410;-1.966;2023-08-06T06:21:09;4.03;;;1.48;;
61590;SDS011;71994;52.410;-1.966;2023-08-06T06:24:17;2.70;;;1.20;;
61590;SDS011;71994;52.410;-1.966;2023-08-06T06:27:24;3.72;;;1.33;;
61590;SDS011;71994;52.410;-1.966;2023-08-06T06:30:32;2.35;;;1.00;;
61590;SDS011;71994;52.410;-1.966;2023-08-06T06:33:38;2.95;;;1.20;;
61590;SDS011;71994;52.410;-1.966;2023-08-06T06:36:47;3.20;;;1.10;;
61590;SDS011;71994;52.410;-1.966;2023-08-06T06:39:59;1.75;;;1.10;;
61590;SDS011;71994;52.410;-1.966;2023-08-06T06:43:15;2.00;;;1.15;;
61590;SDS011;71994;52.410;-1.966;2023-08-06T06:46:24;3.47;;;1.10;;
61590;SDS011;71994;52.410;-1.966;2023-08-06T06:49:30;3.00;;;1.20;;
61590;SDS011;71994;52.410;-1.966;2023-08-06T06:52:42;2.40;;;1.05;;
61590;SDS011;71994;52.410;-1.966;2023-08-06T06:55:52;2.00;;;1.08;;
61590;SDS011;71994;52.410;-1.966;2023-08-06T06:59:09;2.35;;;1.02;;
61590;SDS011;71994;52.410;-1.966;2023-08-06T07:02:16;2.65;;;1.02;;
61590;SDS011;71994;52.410;-1.966;2023-08-06T07:05:24;1.70;;;0.77;;
61590;SDS011;71994;52.410;-1.966;2023-08-06T07:08:33;1.98;;;0.95;;
61590;SDS011;71994;52.410;-1.966;2023-08-06T07:11:42;1.85;;;0.82;;
61590;SDS011;71994;52.410;-1.966;2023-08-06T07:14:50;2.13;;;1.08;;
61590;SDS011;71994;52.410;-1.966;2023-08-06T07:17:59;1.90;;;1.00;;
61590;SDS011;71994;52.410;-1.966;2023-08-06T07:21:05;2.55;;;0.95;;
61590;SDS011;71994;52.410;-1.966;2023-08-06T07:24:15;1.85;;;0.90;;
61590;SDS011;71994;52.410;-1.966;2023-08-06T07:27:23;1.77;;;0.85;;
61590;SDS011;71994;52.410;-1.966;2023-08-06T07:30:30;1.70;;;0.90;;
61590;SDS011;71994;52.410;-1.966;2023-08-06T07:33:37;1.63;;;1.00;;
61590;SDS011;71994;52.410;-1.966;2023-08-06T07:36:45;2.40;;;0.80;;
61590;SDS011;71994;52.410;-1.966;2023-08-06T07:39:57;1.83;;;1.10;;
61590;SDS011;71994;52.410;-1.966;2023-08-06T07:43:04;1.40;;;0.90;;
61590;SDS011;71994;52.410;-1.966;2023-08-06T07:46:10;1.85;;;0.82;;
61590;SDS011;71994;52.410;-1.966;2023-08-06T07:49:21;1.77;;;0.93;;
61590;SDS011;71994;52.410;-1.966;2023-08-06T07:55:38;1.70;;;0.93;;
61590;SDS011;71994;52.410;-1.966;2023-08-06T07:58:45;1.08;;;0.73;;
61590;SDS011;71994;52.410;-1.966;2023-08-06T08:01:53;2.58;;;1.10;;
61590;SDS011;71994;52.410;-1.966;2023-08-06T08:04:59;2.17;;;0.77;;
61590;SDS011;71994;52.410;-1.966;2023-08-06T08:08:05;1.63;;;0.90;;
61590;SDS011;71994;52.410;-1.966;2023-08-06T08:11:15;1.10;;;0.80;;
61590;SDS011;71994;52.410;-1.966;2023-08-06T08:14:26;1.47;;;0.97;;
61590;SDS011;71994;52.410;-1.966;2023-08-06T08:17:38;1.50;;;0.80;;
61590;SDS011;71994;52.410;-1.966;2023-08-06T08:20:44;1.75;;;0.90;;
61590;SDS011;71994;52.410;-1.966;2023-08-06T08:23:51;2.05;;;0.90;;
61590;SDS011;71994;52.410;-1.966;2023-08-06T08:27:00;2.38;;;0.85;;
61590;SDS011;71994;52.410;-1.966;2023-08-06T08:30:07;1.73;;;0.90;;
61590;SDS011;71994;52.410;-1.966;2023-08-06T08:33:14;1.65;;;0.80;;
61590;SDS011;71994;52.410;-1.966;2023-08-06T08:36:21;1.95;;;0.88;;
61590;SDS011;71994;52.410;-1.966;2023-08-06T08:39:31;1.15;;;0.88;;
61590;SDS011;71994;52.410;-1.966;2023-08-06T08:42:43;2.03;;;1.10;;
61590;SDS011;71994;52.410;-1.966;2023-08-06T08:45:49;1.20;;;0.70;;
61590;SDS011;71994;52.410;-1.966;2023-08-06T08:48:58;1.77;;;0.93;;
61590;SDS011;71994;52.410;-1.966;2023-08-06T08:52:05;0.85;;;0.60;;
61590;SDS011;71994;52.410;-1.966;2023-08-06T08:55:15;2.92;;;0.88;;
61590;SDS011;71994;52.410;-1.966;2023-08-06T08:58:26;1.38;;;0.80;;
61590;SDS011;71994;52.410;-1.966;2023-08-06T09:01:33;1.50;;;0.90;;
61590;SDS011;71994;52.410;-1.966;2023-08-06T09:04:41;1.52;;;1.00;;
61590;SDS011;71994;52.410;-1.966;2023-08-06T09:07:49;1.70;;;0.90;;
61590;SDS011;71994;52.410;-1.966;2023-08-06T09:11:07;1.63;;;0.90;;
61590;SDS011;71994;52.410;-1.966;2023-08-06T09:14:20;1.23;;;0.80;;
61590;SDS011;71994;52.410;-1.966;2023-08-06T09:17:27;1.52;;;0.98;;
61590;SDS011;71994;52.410;-1.966;2023-08-06T09:20:33;1.80;;;0.80;;
61590;SDS011;71994;52.410;-1.966;2023-08-06T09:23:43;1.98;;;0.90;;
61590;SDS011;71994;52.410;-1.966;2023-08-06T09:26:49;1.65;;;0.90;;
61590;SDS011;71994;52.410;-1.966;2023-08-06T09:30:05;1.05;;;0.70;;
61590;SDS011;71994;52.410;-1.966;2023-08-06T09:33:17;2.17;;;0.80;;
61590;SDS011;71994;52.410;-1.966;2023-08-06T09:36:30;1.48;;;0.80;;
61590;SDS011;71994;52.410;-1.966;2023-08-06T09:39:38;1.83;;;0.90;;
61590;SDS011;71994;52.410;-1.966;2023-08-06T09:42:48;1.38;;;0.73;;
61590;SDS011;71994;52.410;-1.966;2023-08-06T09:46:02;1.55;;;1.00;;
61590;SDS011;71994;52.410;-1.966;2023-08-06T09:49:19;1.03;;;0.73;;
61590;SDS011;71994;52.410;-1.966;2023-08-06T09:52:26;1.58;;;0.90;;
61590;SDS011;71994;52.410;-1.966;2023-08-06T09:55:33;1.50;;;0.73;;
61590;SDS011;71994;52.410;-1.966;2023-08-06T09:58:47;0.90;;;0.65;;
61590;SDS011;71994;52.410;-1.966;2023-08-06T10:01:58;1.50;;;0.88;;
61590;SDS011;71994;52.410;-1.966;2023-08-06T10:09:36;1.45;;;0.82;;
61590;SDS011;71994;52.410;-1.966;2023-08-06T10:12:43;1.88;;;1.10;;
61590;SDS011;71994;52.410;-1.966;2023-08-06T10:15:53;3.08;;;1.10;;
61590;SDS011;71994;52.410;-1.966;2023-08-06T10:19:02;3.30;;;1.08;;
61590;SDS011;71994;52.410;-1.966;2023-08-06T10:22:10;13.13;;;2.15;;
61590;SDS011;71994;52.410;-1.966;2023-08-06T10:25:16;20.80;;;2.80;;
61590;SDS011;71994;52.410;-1.966;2023-08-06T10:28:23;13.32;;;2.15;;
61590;SDS011;71994;52.410;-1.966;2023-08-06T10:31:53;9.40;;;2.03;;
61590;SDS011;71994;52.410;-1.966;2023-08-06T10:35:03;14.13;;;2.05;;
61590;SDS011;71994;52.410;-1.966;2023-08-06T10:38:10;17.50;;;2.67;;
61590;SDS011;71994;52.410;-1.966;2023-08-06T10:41:22;16.60;;;2.10;;
61590;SDS011;71994;52.410;-1.966;2023-08-06T10:44:32;11.02;;;2.03;;
61590;SDS011;71994;52.410;-1.966;2023-08-06T10:47:44;11.90;;;1.92;;
61590;SDS011;71994;52.410;-1.966;2023-08-06T10:50:56;17.10;;;2.05;;
61590;SDS011;71994;52.410;-1.966;2023-08-06T10:54:02;9.47;;;1.83;;
61590;SDS011;71994;52.410;-1.966;2023-08-06T10:57:10;8.13;;;1.67;;
61590;SDS011;71994;52.410;-1.966;2023-08-06T11:00:16;17.58;;;2.40;;
61590;SDS011;71994;52.410;-1.966;2023-08-06T11:03:22;6.40;;;1.75;;
61590;SDS011;71994;52.410;-1.966;2023-08-06T11:06:31;7.45;;;1.70;;
61590;SDS011;71994;52.410;-1.966;2023-08-06T11:09:37;12.60;;;1.90;;
61590;SDS011;71994;52.410;-1.966;2023-08-06T11:12:44;7.25;;;1.85;;
61590;SDS011;71994;52.410;-1.966;2023-08-06T11:15:50;6.15;;;1.40;;
61590;SDS011;71994;52.410;-1.966;2023-08-06T11:18:58;6.65;;;1.83;;
61590;SDS011;71994;52.410;-1.966;2023-08-06T11:22:07;9.25;;;1.67;;
61590;SDS011;71994;52.410;-1.966;2023-08-06T11:25:13;7.57;;;1.70;;
61590;SDS011;71994;52.410;-1.966;2023-08-06T11:28:20;10.75;;;1.80;;
61590;SDS011;71994;52.410;-1.966;2023-08-06T11:31:26;12.32;;;1.85;;
61590;SDS011;71994;52.410;-1.966;2023-08-06T11:34:33;9.10;;;1.88;;
61590;SDS011;71994;52.410;-1.966;2023-08-06T11:37:46;6.93;;;1.38;;
61590;SDS011;71994;52.410;-1.966;2023-08-06T11:40:52;7.28;;;1.70;;
61590;SDS011;71994;52.410;-1.966;2023-08-06T11:43:59;6.15;;;1.48;;
61590;SDS011;71994;52.410;-1.966;2023-08-06T11:47:06;5.28;;;1.40;;
61590;SDS011;71994;52.410;-1.966;2023-08-06T11:50:24;7.05;;;1.52;;
61590;SDS011;71994;52.410;-1.966;2023-08-06T11:53:35;5.93;;;1.50;;
61590;SDS011;71994;52.410;-1.966;2023-08-06T11:56:42;6.35;;;1.50;;
61590;SDS011;71994;52.410;-1.966;2023-08-06T11:59:48;7.25;;;1.30;;
61590;SDS011;71994;52.410;-1.966;2023-08-06T12:02:55;4.68;;;1.25;;
61590;SDS011;71994;52.410;-1.966;2023-08-06T12:06:02;6.43;;;1.40;;
61590;SDS011;71994;52.410;-1.966;2023-08-06T12:12:21;10.75;;;2.22;;
61590;SDS011;71994;52.410;-1.966;2023-08-06T12:15:27;4.03;;;1.20;;
61590;SDS011;71994;52.410;-1.966;2023-08-06T12:18:33;8.68;;;1.23;;
61590;SDS011;71994;52.410;-1.966;2023-08-06T12:21:52;10.57;;;1.40;;
61590;SDS011;71994;52.410;-1.966;2023-08-06T12:25:21;5.07;;;1.48;;
61590;SDS011;71994;52.410;-1.966;2023-08-06T12:28:27;4.70;;;1.37;;
61590;SDS011;71994;52.410;-1.966;2023-08-06T12:31:33;5.82;;;1.42;;
61590;SDS011;71994;52.410;-1.966;2023-08-06T12:34:41;3.63;;;1.17;;
61590;SDS011;71994;52.410;-1.966;2023-08-06T12:41:02;4.97;;;1.10;;
61590;SDS011;71994;52.410;-1.966;2023-08-06T12:44:09;2.73;;;1.30;;
61590;SDS011;71994;52.410;-1.966;2023-08-06T12:47:15;4.35;;;1.23;;
61590;SDS011;71994;52.410;-1.966;2023-08-06T12:50:22;3.63;;;1.08;;
61590;SDS011;71994;52.410;-1.966;2023-08-06T12:53:28;1.73;;;0.90;;
61590;SDS011;71994;52.410;-1.966;2023-08-06T12:56:38;3.25;;;1.15;;
61590;SDS011;71994;52.410;-1.966;2023-08-06T12:59:44;4.97;;;1.00;;
61590;SDS011;71994;52.410;-1.966;2023-08-06T13:02:50;3.92;;;1.20;;
61590;SDS011;71994;52.410;-1.966;2023-08-06T13:05:57;3.72;;;1.17;;
61590;SDS011;71994;52.410;-1.966;2023-08-06T13:09:03;4.38;;;1.40;;
61590;SDS011;71994;52.410;-1.966;2023-08-06T13:12:13;4.97;;;1.38;;
61590;SDS011;71994;52.410;-1.966;2023-08-06T13:15:21;10.45;;;1.52;;
61590;SDS011;71994;52.410;-1.966;2023-08-06T13:18:27;3.83;;;1.10;;
61590;SDS011;71994;52.410;-1.966;2023-08-06T13:21:34;4.55;;;1.40;;
61590;SDS011;71994;52.410;-1.966;2023-08-06T13:24:57;5.50;;;1.38;;
61590;SDS011;71994;52.410;-1.966;2023-08-06T13:28:06;6.70;;;1.27;;
61590;SDS011;71994;52.410;-1.966;2023-08-06T13:31:12;4.72;;;1.40;;
61590;SDS011;71994;52.410;-1.966;2023-08-06T13:34:19;6.53;;;1.58;;
61590;SDS011;71994;52.410;-1.966;2023-08-06T13:37:25;8.73;;;1.60;;
61590;SDS011;71994;52.410;-1.966;2023-08-06T13:40:32;5.45;;;1.20;;
61590;SDS011;71994;52.410;-1.966;2023-08-06T13:43:45;5.38;;;1.30;;
61590;SDS011;71994;52.410;-1.966;2023-08-06T13:46:51;3.28;;;1.30;;
61590;SDS011;71994;52.410;-1.966;2023-08-06T13:49:57;3.55;;;1.10;;
61590;SDS011;71994;52.410;-1.966;2023-08-06T13:53:05;5.60;;;1.30;;
61590;SDS011;71994;52.410;-1.966;2023-08-06T13:56:12;8.95;;;1.40;;
61590;SDS011;71994;52.410;-1.966;2023-08-06T13:59:23;4.00;;;1.25;;
61590;SDS011;71994;52.410;-1.966;2023-08-06T14:02:29;3.67;;;1.20;;
61590;SDS011;71994;52.410;-1.966;2023-08-06T14:05:35;4.63;;;1.58;;
61590;SDS011;71994;52.410;-1.966;2023-08-06T14:08:41;4.95;;;1.35;;
61590;SDS011;71994;52.410;-1.966;2023-08-06T14:11:48;2.72;;;1.15;;
61590;SDS011;71994;52.410;-1.966;2023-08-06T14:14:57;2.72;;;1.30;;
61590;SDS011;71994;52.410;-1.966;2023-08-06T14:18:05;2.50;;;1.20;;
61590;SDS011;71994;52.410;-1.966;2023-08-06T14:21:15;4.95;;;1.15;;
61590;SDS011;71994;52.410;-1.966;2023-08-06T14:24:21;4.30;;;1.10;;
61590;SDS011;71994;52.410;-1.966;2023-08-06T14:27:27;5.22;;;1.20;;
61590;SDS011;71994;52.410;-1.966;2023-08-06T14:30:41;3.63;;;1.30;;
61590;SDS011;71994;52.410;-1.966;2023-08-06T14:33:48;3.10;;;1.20;;
61590;SDS011;71994;52.410;-1.966;2023-08-06T14:36:54;1.95;;;1.00;;
61590;SDS011;71994;52.410;-1.966;2023-08-06T14:40:10;4.00;;;1.20;;
61590;SDS011;71994;52.410;-1.966;2023-08-06T14:43:17;2.80;;;1.20;;
61590;SDS011;71994;52.410;-1.966;2023-08-06T14:46:29;2.72;;;1.10;;
61590;SDS011;71994;52.410;-1.966;2023-08-06T14:49:41;3.40;;;1.10;;
61590;SDS011;71994;52.410;-1.966;2023-08-06T14:52:52;2.28;;;0.93;;
61590;SDS011;71994;52.410;-1.966;2023-08-06T14:55:58;3.40;;;0.90;;
61590;SDS011;71994;52.410;-1.966;2023-08-06T14:59:04;2.78;;;1.10;;
61590;SDS011;71994;52.410;-1.966;2023-08-06T15:02:14;2.05;;;1.25;;
61590;SDS011;71994;52.410;-1.966;2023-08-06T15:05:26;2.65;;;1.02;;
61590;SDS011;71994;52.410;-1.966;2023-08-06T15:08:35;1.95;;;0.95;;
61590;SDS011;71994;52.410;-1.966;2023-08-06T15:11:46;3.17;;;0.90;;
61590;SDS011;71994;52.410;-1.966;2023-08-06T15:14:54;3.17;;;1.00;;
61590;SDS011;71994;52.410;-1.966;2023-08-06T15:18:04;2.75;;;1.05;;
61590;SDS011;71994;52.410;-1.966;2023-08-06T15:21:14;4.05;;;1.08;;
61590;SDS011;71994;52.410;-1.966;2023-08-06T15:24:22;2.47;;;0.85;;
61590;SDS011;71994;52.410;-1.966;2023-08-06T15:27:31;2.80;;;1.00;;
61590;SDS011;71994;52.410;-1.966;2023-08-06T15:30:43;4.18;;;0.93;;
61590;SDS011;71994;52.410;-1.966;2023-08-06T15:34:00;1.98;;;1.08;;
61590;SDS011;71994;52.410;-1.966;2023-08-06T15:37:06;2.20;;;0.80;;
61590;SDS011;71994;52.410;-1.966;2023-08-06T15:40:13;3.22;;;1.00;;
61590;SDS011;71994;52.410;-1.966;2023-08-06T15:43:19;2.38;;;1.00;;
61590;SDS011;71994;52.410;-1.966;2023-08-06T15:46:26;1.50;;;0.85;;
61590;SDS011;71994;52.410;-1.966;2023-08-06T15:49:40;2.83;;;1.20;;
61590;SDS011;71994;52.410;-1.966;2023-08-06T15:52:49;2.30;;;0.80;;
61590;SDS011;71994;52.410;-1.966;2023-08-06T15:55:55;2.33;;;1.20;;
61590;SDS011;71994;52.410;-1.966;2023-08-06T16:02:26;2.70;;;1.00;;
61590;SDS011;71994;52.410;-1.966;2023-08-06T16:05:36;1.08;;;0.70;;
61590;SDS011;71994;52.410;-1.966;2023-08-06T16:08:42;4.25;;;1.05;;
61590;SDS011;71994;52.410;-1.966;2023-08-06T16:11:53;2.10;;;1.02;;
61590;SDS011;71994;52.410;-1.966;2023-08-06T16:14:59;2.23;;;0.90;;
61590;SDS011;71994;52.410;-1.966;2023-08-06T16:18:06;3.92;;;1.00;;
61590;SDS011;71994;52.410;-1.966;2023-08-06T16:21:15;2.25;;;0.88;;
61590;SDS011;71994;52.410;-1.966;2023-08-06T16:24:21;2.23;;;0.97;;
61590;SDS011;71994;52.410;-1.966;2023-08-06T16:27:27;3.80;;;0.85;;
61590;SDS011;71994;52.410;-1.966;2023-08-06T16:30:34;3.78;;;1.10;;
61590;SDS011;71994;52.410;-1.966;2023-08-06T16:33:40;1.92;;;0.90;;
61590;SDS011;71994;52.410;-1.966;2023-08-06T16:36:49;3.80;;;0.95;;
61590;SDS011;71994;52.410;-1.966;2023-08-06T16:39:59;4.07;;;0.93;;
61590;SDS011;71994;52.410;-1.966;2023-08-06T16:43:09;1.90;;;0.82;;
61590;SDS011;71994;52.410;-1.966;2023-08-06T16:46:15;1.40;;;0.70;;
61590;SDS011;71994;52.410;-1.966;2023-08-06T16:49:21;2.22;;;0.90;;
61590;SDS011;71994;52.410;-1.966;2023-08-06T16:52:30;2.42;;;0.80;;
61590;SDS011;71994;52.410;-1.966;2023-08-06T16:55:39;1.98;;;0.98;;
61590;SDS011;71994;52.410;-1.966;2023-08-06T16:58:45;2.90;;;0.95;;
61590;SDS011;71994;52.410;-1.966;2023-08-06T17:01:54;2.07;;;0.90;;
61590;SDS011;71994;52.410;-1.966;2023-08-06T17:05:01;2.13;;;0.63;;
61590;SDS011;71994;52.410;-1.966;2023-08-06T17:08:10;2.55;;;0.80;;
61590;SDS011;71994;52.410;-1.966;2023-08-06T17:11:16;2.57;;;0.70;;
61590;SDS011;71994;52.410;-1.966;2023-08-06T17:14:22;2.10;;;0.70;;
61590;SDS011;71994;52.410;-1.966;2023-08-06T17:17:28;1.20;;;0.75;;
61590;SDS011;71994;52.410;-1.966;2023-08-06T17:20:35;2.45;;;0.70;;
61590;SDS011;71994;52.410;-1.966;2023-08-06T17:23:44;3.42;;;0.90;;
61590;SDS011;71994;52.410;-1.966;2023-08-06T17:26:50;1.63;;;0.80;;
61590;SDS011;71994;52.410;-1.966;2023-08-06T17:30:04;1.75;;;0.70;;
61590;SDS011;71994;52.410;-1.966;2023-08-06T17:33:11;1.90;;;0.52;;
61590;SDS011;71994;52.410;-1.966;2023-08-06T17:36:19;1.88;;;0.63;;
61590;SDS011;71994;52.410;-1.966;2023-08-06T17:39:28;2.00;;;0.90;;
61590;SDS011;71994;52.410;-1.966;2023-08-06T17:42:35;1.60;;;0.80;;
61590;SDS011;71994;52.410;-1.966;2023-08-06T17:45:43;1.25;;;0.80;;
61590;SDS011;71994;52.410;-1.966;2023-08-06T17:48:50;3.35;;;0.88;;
61590;SDS011;71994;52.410;-1.966;2023-08-06T17:51:59;1.05;;;0.60;;
61590;SDS011;71994;52.410;-1.966;2023-08-06T17:55:08;1.55;;;0.85;;
61590;SDS011;71994;52.410;-1.966;2023-08-06T17:58:14;1.23;;;0.70;;
61590;SDS011;71994;52.410;-1.966;2023-08-06T18:01:21;2.13;;;0.80;;
61590;SDS011;71994;52.410;-1.966;2023-08-06T18:04:27;1.35;;;0.70;;
61590;SDS011;71994;52.410;-1.966;2023-08-06T18:07:33;1.80;;;0.77;;
61590;SDS011;71994;52.410;-1.966;2023-08-06T18:10:43;1.70;;;0.70;;
61590;SDS011;71994;52.410;-1.966;2023-08-06T18:13:49;1.42;;;0.50;;
61590;SDS011;71994;52.410;-1.966;2023-08-06T18:16:55;2.20;;;0.75;;
61590;SDS011;71994;52.410;-1.966;2023-08-06T18:20:02;2.28;;;0.90;;
61590;SDS011;71994;52.410;-1.966;2023-08-06T18:23:09;1.67;;;0.70;;
61590;SDS011;71994;52.410;-1.966;2023-08-06T18:26:18;2.50;;;0.80;;
61590;SDS011;71994;52.410;-1.966;2023-08-06T18:29:24;2.40;;;0.57;;
61590;SDS011;71994;52.410;-1.966;2023-08-06T18:32:31;1.45;;;0.70;;
61590;SDS011;71994;52.410;-1.966;2023-08-06T18:35:39;1.33;;;0.65;;
61590;SDS011;71994;52.410;-1.966;2023-08-06T18:38:46;1.30;;;0.60;;
61590;SDS011;71994;52.410;-1.966;2023-08-06T18:41:55;2.10;;;0.65;;
61590;SDS011;71994;52.410;-1.966;2023-08-06T18:45:03;1.10;;;0.60;;
61590;SDS011;71994;52.410;-1.966;2023-08-06T18:48:10;0.98;;;0.63;;
61590;SDS011;71994;52.410;-1.966;2023-08-06T18:51:17;2.10;;;0.70;;
61590;SDS011;71994;52.410;-1.966;2023-08-06T18:54:23;0.70;;;0.60;;